Time;durP1;ratioP1;P1;durP2;ratioP2;P2;SDS_P1;SDS_P2;PMS_P1;PMS_P2;Temp;Humidity;BMP_temperature;BMP_pressure;BME280_temperature;BME280_humidity;BME280_pressure;Samples;Min_cycle;Max_cycle;Signal;HPM_P1;HPM_P2
2022/06/24 00:01:59;;;;;;;18.77;17.67;;;22.60;62.20;;;;;;4992632;28;20400;-77
2022/06/24 00:04:26;;;;;;;17.25;16.35;;;22.60;62.40;;;;;;4990816;28;20026;-77
2022/06/24 00:06:52;;;;;;;16.75;15.68;;;22.60;62.30;;;;;;4989485;28;20048;-76
2022/06/24 00:09:20;;;;;;;18.13;17.13;;;22.70;62.30;;;;;;4990112;28;20030;-77
2022/06/24 00:12:06;;;;;;;18.17;17.08;;;22.60;62.20;;;;;;4990103;28;20057;-77
2022/06/24 00:14:33;;;;;;;16.98;16.08;;;22.60;62.20;;;;;;4994176;28;20037;-77
2022/06/24 00:17:01;;;;;;;17.00;16.00;;;22.60;62.10;;;;;;5010262;28;20030;-77
2022/06/24 00:19:33;;;;;;;17.05;16.05;;;22.70;61.80;;;;;;4985112;28;20037;-77
2022/06/24 00:22:00;;;;;;;16.60;15.77;;;22.70;61.90;;;;;;5009042;28;20505;-77
2022/06/24 00:24:26;;;;;;;16.55;15.32;;;22.70;61.90;;;;;;4990291;28;20387;-77
2022/06/24 00:26:52;;;;;;;16.15;15.18;;;22.70;62.00;;;;;;5009290;28;20030;-77
2022/06/24 00:29:18;;;;;;;16.95;15.75;;;22.60;62.10;;;;;;4992397;28;20049;-77
2022/06/24 00:32:08;;;;;;;17.10;16.10;;;22.60;62.00;;;;;;5007665;28;20042;-77
2022/06/24 00:34:34;;;;;;;16.73;15.52;;;22.60;62.70;;;;;;4991724;28;20041;-77
2022/06/24 00:37:23;;;;;;;17.73;16.73;;;22.50;62.50;;;;;;4989880;28;20038;-77
2022/06/24 00:39:50;;;;;;;17.50;16.50;;;22.60;62.80;;;;;;5008870;28;20034;-77
2022/06/24 00:42:16;;;;;;;18.10;16.90;;;22.50;62.90;;;;;;4973291;28;20502;-77
2022/06/24 00:45:05;;;;;;;17.83;16.83;;;22.50;63.10;;;;;;5011936;28;20053;-77
2022/06/24 00:47:31;;;;;;;15.77;14.98;;;22.50;63.50;;;;;;4996686;28;20060;-77
2022/06/24 00:49:59;;;;;;;17.58;16.27;;;22.50;63.40;;;;;;4997370;28;20758;-77
2022/06/24 00:52:25;;;;;;;17.65;16.45;;;22.50;63.50;;;;;;4993560;28;20041;-77
2022/06/24 00:54:51;;;;;;;17.02;16.15;;;22.40;63.50;;;;;;4993686;28;20033;-77
2022/06/24 00:57:17;;;;;;;16.38;15.38;;;22.40;63.40;;;;;;4979661;28;20053;-77
2022/06/24 00:59:43;;;;;;;15.82;14.82;;;22.40;63.80;;;;;;4977229;28;20069;-77
2022/06/24 01:02:10;;;;;;;16.60;15.50;;;22.30;63.80;;;;;;4996120;28;20042;-77
2022/06/24 01:04:36;;;;;;;16.95;16.08;;;22.30;64.10;;;;;;5012132;28;20383;-77
2022/06/24 01:07:02;;;;;;;17.40;16.42;;;22.30;64.20;;;;;;5012249;28;20037;-77
2022/06/24 01:09:28;;;;;;;17.80;16.67;;;22.20;64.60;;;;;;4993331;28;20367;-77
2022/06/24 01:11:54;;;;;;;20.55;18.85;;;22.20;64.70;;;;;;5012336;28;20402;-77
2022/06/24 01:14:20;;;;;;;16.50;15.45;;;22.10;64.70;;;;;;5012648;28;20061;-77
2022/06/24 01:16:46;;;;;;;16.83;15.80;;;22.20;64.80;;;;;;4995876;28;20038;-77
2022/06/24 01:19:13;;;;;;;18.10;16.70;;;22.10;64.90;;;;;;5012032;28;20026;-77
2022/06/24 01:21:40;;;;;;;18.42;17.20;;;22.10;64.90;;;;;;5011983;28;20482;-76
2022/06/24 01:24:20;;;;;;;18.63;17.33;;;22.00;65.00;;;;;;4976983;28;20046;-77
2022/06/24 01:26:50;;;;;;;18.73;17.67;;;22.00;65.10;;;;;;4996892;28;20038;-77
2022/06/24 01:29:17;;;;;;;18.35;17.27;;;22.10;64.90;;;;;;5011382;28;20057;-77
2022/06/24 01:31:43;;;;;;;18.00;16.98;;;22.10;64.80;;;;;;4995091;28;20038;-77
2022/06/24 01:34:10;;;;;;;18.33;17.13;;;22.10;64.70;;;;;;4992908;28;20459;-77
2022/06/24 01:36:36;;;;;;;17.55;16.60;;;22.10;64.50;;;;;;4992724;28;20039;-78
2022/06/24 01:39:03;;;;;;;17.25;16.15;;;22.20;64.60;;;;;;4992781;28;20018;-77
2022/06/24 01:41:29;;;;;;;18.38;17.25;;;22.10;64.50;;;;;;5011694;28;20038;-77
2022/06/24 01:43:55;;;;;;;18.08;16.98;;;22.20;64.50;;;;;;5013401;28;20026;-77
2022/06/24 01:46:21;;;;;;;18.42;17.20;;;22.10;64.80;;;;;;4975319;28;20483;-77
2022/06/24 01:48:47;;;;;;;16.00;15.10;;;22.10;64.70;;;;;;4985964;28;20026;-77
2022/06/24 01:51:14;;;;;;;16.33;15.32;;;22.00;65.00;;;;;;4999748;28;20021;-77
2022/06/24 01:53:40;;;;;;;16.95;15.85;;;22.00;64.80;;;;;;4976504;28;20494;-77
2022/06/24 01:56:06;;;;;;;16.13;15.30;;;22.00;65.00;;;;;;5008439;28;20390;-77
2022/06/24 01:58:32;;;;;;;16.45;15.55;;;22.00;64.90;;;;;;5011357;28;20034;-77
2022/06/24 02:00:58;;;;;;;16.67;15.68;;;22.00;64.90;;;;;;5010773;28;20061;-77
2022/06/24 02:03:24;;;;;;;17.95;16.60;;;22.00;64.90;;;;;;5011510;28;20022;-77
2022/06/24 02:05:51;;;;;;;17.42;16.33;;;21.90;65.10;;;;;;4992258;28;20031;-77
2022/06/24 02:08:17;;;;;;;17.23;16.23;;;21.90;65.10;;;;;;4994515;28;20038;-77
2022/06/24 02:13:27;;;;;;;17.80;16.88;;;21.90;64.90;;;;;;5009314;28;20514;-77
2022/06/24 02:16:03;;;;;;;18.33;16.98;;;21.90;65.10;;;;;;4991421;28;20029;-77
2022/06/24 02:18:30;;;;;;;16.98;15.90;;;21.90;65.30;;;;;;4992752;28;20033;-78
2022/06/24 02:20:57;;;;;;;18.25;16.92;;;21.90;65.30;;;;;;5010939;28;20037;-77
2022/06/24 02:23:23;;;;;;;17.50;16.30;;;21.90;65.50;;;;;;4993029;28;20038;-77
2022/06/24 02:25:49;;;;;;;16.17;15.27;;;21.80;65.50;;;;;;4995378;28;20385;-77
2022/06/24 02:28:15;;;;;;;16.48;15.55;;;21.80;65.70;;;;;;5008939;28;20037;-76
2022/06/24 02:30:42;;;;;;;17.30;16.38;;;21.80;65.80;;;;;;5010128;28;20041;-77
2022/06/24 02:33:08;;;;;;;16.25;15.35;;;21.80;65.70;;;;;;4994057;28;20033;-77
2022/06/24 02:35:35;;;;;;;16.70;15.35;;;21.80;65.80;;;;;;5010916;28;20038;-77
2022/06/24 02:38:01;;;;;;;15.93;14.82;;;21.70;66.20;;;;;;5011614;28;20033;-77
2022/06/24 02:40:45;;;;;;;16.17;15.25;;;21.70;66.30;;;;;;5010333;28;20486;-77
2022/06/24 02:43:12;;;;;;;16.05;15.18;;;21.70;66.20;;;;;;5007917;28;20041;-77
2022/06/24 02:45:45;;;;;;;16.17;15.13;;;21.70;66.10;;;;;;4991048;28;20105;-77
2022/06/24 02:48:11;;;;;;;16.73;15.50;;;21.70;66.20;;;;;;5010417;28;20037;-77
2022/06/24 02:50:41;;;;;;;17.20;16.00;;;21.70;66.10;;;;;;4991549;28;20387;-77
2022/06/24 02:53:08;;;;;;;16.20;15.23;;;21.60;66.50;;;;;;4993936;28;20042;-76
2022/06/24 02:55:34;;;;;;;16.67;15.57;;;21.60;66.40;;;;;;5010358;28;20029;-77
2022/06/24 02:58:00;;;;;;;16.95;15.85;;;21.60;66.60;;;;;;5010143;28;20033;-77
2022/06/24 03:00:26;;;;;;;17.10;15.93;;;21.60;66.40;;;;;;4990507;28;20053;-76
2022/06/24 03:02:52;;;;;;;16.50;15.52;;;21.60;66.40;;;;;;4993474;28;20475;-77
2022/06/24 03:05:18;;;;;;;15.40;14.40;;;21.60;66.40;;;;;;5011323;28;20034;-77
2022/06/24 03:07:45;;;;;;;15.43;14.50;;;21.60;66.30;;;;;;5009100;28;20411;-77
2022/06/24 03:10:11;;;;;;;16.05;15.05;;;21.60;66.50;;;;;;5009340;28;20022;-77
2022/06/24 03:12:37;;;;;;;16.20;15.10;;;21.50;66.80;;;;;;5010006;28;20045;-77
2022/06/24 03:15:03;;;;;;;16.08;15.10;;;21.50;66.90;;;;;;5009580;28;20030;-77
2022/06/24 03:17:29;;;;;;;15.73;14.73;;;21.50;66.90;;;;;;5010111;28;20056;-77
2022/06/24 03:19:56;;;;;;;15.90;14.80;;;21.50;66.80;;;;;;5011732;28;20034;-76
2022/06/24 03:22:22;;;;;;;15.48;14.38;;;21.50;66.70;;;;;;4993458;28;20057;-77
2022/06/24 03:24:48;;;;;;;14.70;13.70;;;21.50;66.80;;;;;;5009764;28;20026;-76
2022/06/24 03:27:14;;;;;;;16.67;15.68;;;21.50;66.90;;;;;;5009659;28;20042;-77
2022/06/24 03:29:40;;;;;;;15.25;14.27;;;21.50;66.80;;;;;;5009624;28;20033;-77
2022/06/24 03:32:06;;;;;;;15.50;14.40;;;21.50;66.90;;;;;;5011404;28;20030;-77
2022/06/24 03:34:32;;;;;;;16.05;14.63;;;21.50;67.00;;;;;;4994863;28;20034;-77
2022/06/24 03:36:58;;;;;;;15.60;14.57;;;21.50;66.90;;;;;;5009718;28;20029;-77
2022/06/24 03:39:24;;;;;;;15.63;14.70;;;21.50;67.00;;;;;;5009454;28;20056;-76
2022/06/24 03:41:51;;;;;;;15.98;14.98;;;21.50;67.20;;;;;;5009342;28;20426;-77
2022/06/24 03:44:17;;;;;;;14.13;13.32;;;21.50;67.20;;;;;;5009112;28;20037;-77
2022/06/24 03:46:43;;;;;;;16.23;15.23;;;21.50;67.10;;;;;;4986728;28;20215;-77
2022/06/24 03:49:09;;;;;;;15.70;14.48;;;21.50;67.60;;;;;;5006285;28;20033;-77
2022/06/24 03:51:35;;;;;;;14.57;13.57;;;21.40;68.00;;;;;;4990274;28;20403;-77
2022/06/24 03:54:02;;;;;;;14.15;13.25;;;21.20;68.40;;;;;;5008344;28;20038;-77
2022/06/24 03:56:28;;;;;;;13.90;13.00;;;21.20;68.50;;;;;;5008256;28;20037;-77
2022/06/24 03:58:54;;;;;;;13.68;12.60;;;21.20;68.40;;;;;;4990501;28;20034;-77
2022/06/24 04:01:20;;;;;;;14.85;14.02;;;21.30;68.50;;;;;;5005973;28;20596;-77
2022/06/24 04:03:46;;;;;;;15.38;14.27;;;21.20;68.80;;;;;;5009438;28;20030;-77
2022/06/24 04:06:12;;;;;;;15.60;14.40;;;21.20;69.30;;;;;;4990417;28;20486;-77
2022/06/24 04:08:38;;;;;;;15.55;14.52;;;21.20;69.50;;;;;;5008435;28;20456;-77
2022/06/24 04:11:11;;;;;;;14.82;13.82;;;21.10;70.10;;;;;;5011250;28;20033;-78
2022/06/24 04:13:37;;;;;;;13.80;12.98;;;21.10;70.60;;;;;;4974511;28;20042;-77
2022/06/24 04:16:04;;;;;;;13.98;13.10;;;21.10;70.40;;;;;;4989852;28;20394;-77
2022/06/24 04:18:30;;;;;;;13.90;13.10;;;21.20;70.10;;;;;;5011647;28;20486;-77
2022/06/24 04:20:56;;;;;;;14.00;13.10;;;21.20;70.10;;;;;;4994175;28;20157;-77
2022/06/24 04:23:22;;;;;;;13.77;12.98;;;21.20;69.80;;;;;;5012962;28;20045;-77
2022/06/24 04:25:48;;;;;;;13.80;12.90;;;21.20;69.70;;;;;;5013221;28;20030;-77
2022/06/24 04:28:15;;;;;;;14.73;13.63;;;21.20;70.10;;;;;;4993973;28;20042;-77
2022/06/24 04:30:41;;;;;;;14.23;13.00;;;21.20;69.90;;;;;;4993520;28;20033;-76
2022/06/24 04:33:07;;;;;;;14.82;13.88;;;21.10;70.00;;;;;;5013231;28;20041;-77
2022/06/24 04:35:33;;;;;;;14.20;13.32;;;21.00;70.10;;;;;;5011958;28;20036;-76
2022/06/24 04:37:59;;;;;;;13.95;13.13;;;21.00;70.10;;;;;;5013075;28;20046;-77
2022/06/24 04:40:25;;;;;;;14.38;13.48;;;21.10;70.00;;;;;;5012845;28;20033;-77
2022/06/24 04:42:51;;;;;;;13.75;12.77;;;21.10;69.90;;;;;;5011168;28;20042;-77
2022/06/24 04:45:17;;;;;;;15.70;13.68;;;21.00;70.30;;;;;;4993290;28;20379;-77
2022/06/24 04:47:43;;;;;;;14.05;13.02;;;21.00;70.00;;;;;;4993779;28;20383;-77
2022/06/24 04:50:10;;;;;;;13.77;12.88;;;21.00;70.20;;;;;;5013033;28;20042;-77
2022/06/24 04:52:36;;;;;;;14.30;13.20;;;21.00;70.00;;;;;;5013543;28;20033;-76
2022/06/24 04:55:02;;;;;;;14.50;13.35;;;21.00;70.00;;;;;;5012764;28;20418;-77
2022/06/24 04:57:28;;;;;;;14.38;13.38;;;21.00;70.40;;;;;;4993451;28;20375;-76
2022/06/24 04:59:55;;;;;;;14.25;13.32;;;21.00;70.40;;;;;;5012852;28;20025;-77
2022/06/24 05:02:21;;;;;;;14.52;13.55;;;20.90;70.80;;;;;;5012957;28;20046;-77
2022/06/24 05:04:47;;;;;;;15.18;14.15;;;21.00;70.80;;;;;;5012427;28;20036;-77
2022/06/24 05:07:13;;;;;;;14.68;13.45;;;21.00;70.90;;;;;;4993062;28;20026;-77
2022/06/24 05:09:39;;;;;;;14.65;13.68;;;21.00;70.80;;;;;;4991959;28;20035;-77
2022/06/24 05:12:05;;;;;;;13.63;12.77;;;21.00;70.60;;;;;;5000797;28;20497;-77
2022/06/24 05:14:32;;;;;;;14.43;13.32;;;21.10;70.70;;;;;;5010279;28;20056;-77
2022/06/24 05:16:58;;;;;;;15.02;13.82;;;21.10;70.60;;;;;;5012497;28;20034;-77
2022/06/24 05:19:24;;;;;;;14.48;13.48;;;21.10;70.80;;;;;;4988247;28;20038;-77
2022/06/24 05:21:50;;;;;;;14.88;13.98;;;21.00;70.70;;;;;;5011805;28;20037;-77
2022/06/24 05:24:16;;;;;;;15.00;13.73;;;21.00;70.90;;;;;;4992976;28;20030;-77
2022/06/24 05:26:43;;;;;;;14.35;13.48;;;21.00;70.50;;;;;;4977374;28;20057;-77
2022/06/24 05:29:09;;;;;;;14.98;13.90;;;21.00;70.90;;;;;;5012855;28;20093;-77
2022/06/24 05:31:35;;;;;;;14.77;13.77;;;20.90;71.10;;;;;;5011911;28;20034;-77
2022/06/24 05:34:02;;;;;;;15.15;14.25;;;21.00;70.90;;;;;;4993063;28;20034;-77
2022/06/24 05:36:28;;;;;;;14.40;13.23;;;21.00;71.80;;;;;;4992580;28;20040;-77
2022/06/24 05:38:54;;;;;;;14.60;13.70;;;21.00;71.80;;;;;;4992693;28;20366;-77
2022/06/24 05:41:20;;;;;;;14.63;13.82;;;21.10;71.80;;;;;;5012274;28;20530;-77
2022/06/24 05:43:46;;;;;;;14.55;13.45;;;21.30;71.80;;;;;;5011185;28;20037;-77
2022/06/24 05:46:13;;;;;;;15.10;14.20;;;21.40;71.40;;;;;;4992063;28;20038;-77
2022/06/24 05:48:40;;;;;;;17.00;16.00;;;21.70;70.80;;;;;;4992638;28;20028;-77
2022/06/24 05:51:10;;;;;;;15.32;14.52;;;21.90;69.50;;;;;;5011421;28;20026;-77
2022/06/24 05:56:21;;;;;;;20.42;19.20;;;22.20;67.80;;;;;;5015974;28;20280;-77
2022/06/24 05:58:47;;;;;;;18.30;17.08;;;22.20;67.60;;;;;;4993660;28;20517;-77
2022/06/24 06:01:14;;;;;;;16.73;15.73;;;22.20;68.00;;;;;;5010913;28;20056;-77
2022/06/24 06:03:40;;;;;;;18.23;17.02;;;22.40;67.60;;;;;;4992175;28;20026;-77
2022/06/24 06:06:07;;;;;;;19.83;18.65;;;22.50;67.30;;;;;;4992212;28;20038;-77
2022/06/24 06:08:34;;;;;;;21.48;20.02;;;22.70;67.30;;;;;;5011264;28;20042;-77
2022/06/24 06:11:00;;;;;;;21.30;20.17;;;22.70;66.10;;;;;;5013074;28;20467;-77
2022/06/24 06:13:26;;;;;;;24.55;23.05;;;22.70;65.60;;;;;;5011468;28;20396;-77
2022/06/24 06:15:52;;;;;;;26.27;24.45;;;22.80;65.00;;;;;;5009905;28;20037;-77
2022/06/24 06:18:18;;;;;;;24.20;22.77;;;22.80;64.80;;;;;;4991955;28;20030;-77
2022/06/24 06:20:44;;;;;;;21.48;20.17;;;22.70;65.10;;;;;;4986666;28;20022;-77
2022/06/24 06:23:11;;;;;;;21.05;19.65;;;22.60;65.20;;;;;;5012462;28;20045;-77
2022/06/24 06:25:37;;;;;;;21.98;20.67;;;22.60;65.30;;;;;;5010243;28;20029;-77
2022/06/24 06:28:03;;;;;;;22.70;21.25;;;22.50;65.50;;;;;;5010862;28;20034;-77
2022/06/24 06:30:30;;;;;;;21.48;20.00;;;22.60;65.70;;;;;;5008076;28;20053;-77
2022/06/24 06:32:56;;;;;;;20.33;18.77;;;22.60;65.80;;;;;;5010882;28;20534;-77
2022/06/24 06:35:22;;;;;;;20.25;18.77;;;22.60;65.80;;;;;;5007369;28;20340;-77
2022/06/24 06:37:48;;;;;;;19.73;18.45;;;22.70;65.40;;;;;;5006325;28;20403;-78
2022/06/24 06:40:15;;;;;;;22.75;21.02;;;22.80;65.00;;;;;;4987783;28;20034;-77
2022/06/24 06:42:41;;;;;;;20.33;18.65;;;23.00;63.80;;;;;;5002254;28;20058;-77
2022/06/24 06:45:07;;;;;;;20.88;19.25;;;23.10;63.80;;;;;;4992331;28;20380;-77
2022/06/24 06:47:33;;;;;;;22.40;20.80;;;23.20;63.10;;;;;;5008911;28;20030;-77
2022/06/24 06:50:00;;;;;;;22.13;20.58;;;23.20;63.30;;;;;;5012448;28;20375;-77
2022/06/24 06:52:26;;;;;;;25.13;22.90;;;23.40;62.80;;;;;;4991419;28;20034;-78
2022/06/24 06:54:52;;;;;;;23.33;21.67;;;23.40;62.10;;;;;;4991357;28;20044;-77
2022/06/24 06:57:18;;;;;;;21.42;19.77;;;23.40;61.90;;;;;;4991240;28;20476;-77
2022/06/24 06:59:44;;;;;;;22.13;20.52;;;23.30;61.70;;;;;;5008502;28;20030;-77
2022/06/24 07:02:10;;;;;;;21.00;19.33;;;23.20;61.80;;;;;;5011327;28;20041;-77
2022/06/24 07:04:36;;;;;;;22.00;20.42;;;23.30;61.80;;;;;;4993892;28;20037;-77
2022/06/24 07:07:02;;;;;;;21.67;20.10;;;23.40;61.40;;;;;;4989937;28;20043;-77
2022/06/24 07:09:28;;;;;;;21.70;20.15;;;23.40;61.00;;;;;;5001551;28;20042;-77
2022/06/24 07:11:55;;;;;;;22.52;21.15;;;23.20;61.90;;;;;;4991130;28;20045;-77
2022/06/24 07:14:21;;;;;;;20.02;18.58;;;23.00;61.90;;;;;;5010379;28;20045;-77
2022/06/24 07:16:47;;;;;;;22.48;21.08;;;22.90;62.20;;;;;;4993423;28;20494;-77
2022/06/24 07:19:13;;;;;;;25.17;23.52;;;22.90;61.90;;;;;;4990697;28;20025;-77
2022/06/24 07:21:39;;;;;;;24.65;22.85;;;22.90;62.10;;;;;;4977104;28;20776;-77
2022/06/24 07:24:05;;;;;;;28.00;26.35;;;22.90;62.00;;;;;;4993718;28;20022;-77
2022/06/24 07:26:31;;;;;;;26.33;24.73;;;22.80;62.50;;;;;;5009091;28;20042;-77
2022/06/24 07:28:57;;;;;;;22.75;21.40;;;22.50;64.00;;;;;;5011696;28;20040;-77
2022/06/24 07:31:23;;;;;;;25.05;23.27;;;22.40;63.50;;;;;;4972993;28;20506;-77
2022/06/24 07:33:49;;;;;;;26.17;24.48;;;22.40;64.00;;;;;;5009748;28;20025;-77
2022/06/24 07:36:16;;;;;;;23.73;22.25;;;22.30;64.10;;;;;;5009660;28;20022;-77
2022/06/24 07:38:42;;;;;;;20.08;18.67;;;22.40;64.40;;;;;;4990738;28;20048;-78
2022/06/24 07:41:09;;;;;;;19.23;17.83;;;22.70;63.90;;;;;;5009972;28;20406;-77
2022/06/24 07:43:37;;;;;;;20.83;19.42;;;22.80;63.30;;;;;;4993433;28;20037;-77
2022/06/24 07:46:04;;;;;;;19.65;18.30;;;23.00;62.40;;;;;;4989712;28;20030;-77
2022/06/24 07:48:30;;;;;;;18.98;17.65;;;23.00;61.40;;;;;;4992528;28;20045;-77
2022/06/24 07:50:56;;;;;;;22.98;21.52;;;22.90;61.60;;;;;;4990585;28;20022;-78
2022/06/24 07:53:22;;;;;;;25.73;24.20;;;22.80;62.30;;;;;;4991857;28;20384;-77
2022/06/24 07:58:33;;;;;;;20.85;19.45;;;22.70;62.70;;;;;;5007883;28;20042;-78
2022/06/24 08:01:01;;;;;;;20.15;18.80;;;22.70;62.30;;;;;;5008247;28;20026;-77
2022/06/24 08:03:27;;;;;;;21.60;19.77;;;22.60;62.30;;;;;;5009362;28;20038;-77
2022/06/24 08:05:53;;;;;;;19.02;17.73;;;22.50;62.20;;;;;;4990329;28;20030;-77
2022/06/24 08:08:19;;;;;;;21.73;20.42;;;22.30;62.40;;;;;;5008711;28;20033;-77
2022/06/24 08:10:45;;;;;;;24.63;22.83;;;22.30;63.00;;;;;;5009605;28;20051;-76
2022/06/24 08:13:11;;;;;;;19.83;18.42;;;22.40;63.20;;;;;;4990139;28;20514;-77
2022/06/24 08:15:37;;;;;;;18.88;17.58;;;22.40;63.10;;;;;;5008225;28;20041;-77
2022/06/24 08:18:03;;;;;;;23.77;22.25;;;22.50;62.60;;;;;;4990074;28;20034;-77
2022/06/24 08:20:29;;;;;;;19.65;18.15;;;22.70;61.70;;;;;;5009079;28;20505;-78
2022/06/24 08:22:56;;;;;;;28.52;26.88;;;22.90;62.00;;;;;;5011079;28;20050;-78
2022/06/24 08:25:22;;;;;;;29.83;27.98;;;23.00;61.40;;;;;;4990086;28;20026;-77
2022/06/24 08:27:48;;;;;;;31.95;29.88;;;23.30;61.00;;;;;;5009012;28;20030;-77
2022/06/24 08:30:14;;;;;;;29.60;27.90;;;23.40;60.50;;;;;;5008274;28;20494;-77
2022/06/24 08:32:40;;;;;;;29.90;28.08;;;23.50;60.00;;;;;;4989919;28;20040;-77
2022/06/24 08:35:06;;;;;;;33.80;31.88;;;23.50;59.10;;;;;;5011151;28;20482;-77
2022/06/24 08:37:32;;;;;;;30.27;28.48;;;23.60;59.00;;;;;;5008257;28;20045;-77
2022/06/24 08:40:00;;;;;;;30.10;28.23;;;23.70;58.70;;;;;;5009221;28;20387;-77
2022/06/24 08:42:27;;;;;;;30.23;28.23;;;23.60;58.20;;;;;;5008412;28;20058;-77
2022/06/24 08:44:53;;;;;;;28.85;27.25;;;23.50;58.20;;;;;;5008810;28;20471;-77
2022/06/24 08:47:19;;;;;;;32.28;30.40;;;23.60;58.00;;;;;;4991287;28;20044;-77
2022/06/24 08:49:45;;;;;;;48.03;45.50;;;23.70;58.40;;;;;;5008994;28;20474;-77
2022/06/24 08:52:12;;;;;;;85.13;80.78;;;24.00;58.00;;;;;;4989912;28;20045;-77
2022/06/24 08:54:41;;;;;;;89.90;85.38;;;24.30;56.30;;;;;;4989888;28;20022;-77
2022/06/24 08:57:07;;;;;;;92.97;88.03;;;24.40;55.60;;;;;;4989983;28;20034;-78
2022/06/24 08:59:33;;;;;;;86.07;81.32;;;24.50;55.30;;;;;;5008223;28;20022;-77
2022/06/24 09:01:59;;;;;;;84.38;79.85;;;24.60;55.10;;;;;;5009726;28;20057;-77
2022/06/24 09:04:25;;;;;;;79.68;75.43;;;24.70;54.70;;;;;;4991269;28;20407;-77
2022/06/24 09:06:52;;;;;;;38.97;36.88;;;24.80;54.40;;;;;;4993258;28;20022;-77
2022/06/24 09:09:24;;;;;;;34.00;32.03;;;24.70;54.70;;;;;;5012444;28;20026;-77
2022/06/24 09:11:56;;;;;;;45.55;42.67;;;24.50;55.70;;;;;;4993210;28;20387;-77
2022/06/24 09:14:22;;;;;;;29.88;27.85;;;24.30;57.50;;;;;;4994372;28;20050;-77
2022/06/24 09:16:48;;;;;;;26.80;25.05;;;24.10;57.60;;;;;;5013695;28;20037;-77
2022/06/24 09:19:17;;;;;;;30.00;28.23;;;23.90;57.60;;;;;;4988898;28;20030;-77
2022/06/24 09:21:44;;;;;;;29.20;27.25;;;23.90;58.30;;;;;;4993396;28;20038;-77
2022/06/24 09:24:11;;;;;;;29.13;26.92;;;24.10;58.40;;;;;;4995958;28;20030;-77
2022/06/24 09:26:41;;;;;;;33.45;31.45;;;24.50;57.50;;;;;;4996953;28;20462;-77
2022/06/24 09:29:12;;;;;;;35.95;33.55;;;24.60;56.50;;;;;;5009949;28;20404;-78
2022/06/24 09:31:39;;;;;;;30.08;28.05;;;24.60;55.70;;;;;;5012633;28;20042;-77
2022/06/24 09:34:15;;;;;;;31.55;29.85;;;24.50;56.20;;;;;;5011848;28;20017;-77
2022/06/24 09:36:43;;;;;;;29.75;27.90;;;24.30;56.50;;;;;;4978912;28;20034;-77
2022/06/24 09:39:13;;;;;;;32.17;30.13;;;24.10;56.90;;;;;;4992712;28;20089;-77
2022/06/24 09:41:50;;;;;;;28.05;26.15;;;24.00;56.60;;;;;;4994933;28;20364;-77
2022/06/24 09:44:17;;;;;;;28.77;26.95;;;23.90;56.70;;;;;;5011570;28;20033;-77
2022/06/24 09:46:43;;;;;;;27.13;25.08;;;23.80;56.50;;;;;;5011248;28;20483;-77
2022/06/24 09:49:17;;;;;;;26.58;24.92;;;23.70;57.20;;;;;;4978415;28;20042;-77
2022/06/24 09:51:46;;;;;;;29.60;27.65;;;23.80;56.90;;;;;;4996229;28;20117;-77
2022/06/24 09:54:13;;;;;;;31.92;29.98;;;23.90;55.80;;;;;;4995583;28;20026;-77
2022/06/24 09:56:39;;;;;;;30.17;28.10;;;23.90;54.50;;;;;;5011301;28;20041;-77
2022/06/24 10:01:52;;;;;;;41.88;39.60;;;24.10;54.30;;;;;;5011608;28;20045;-78
2022/06/24 10:04:18;;;;;;;36.33;34.10;;;24.30;53.70;;;;;;4978687;28;20399;-78
2022/06/24 10:06:48;;;;;;;38.97;36.78;;;24.30;53.40;;;;;;5010254;28;20399;-77
2022/06/24 10:09:18;;;;;;;57.95;54.80;;;24.50;53.10;;;;;;5010544;28;20049;-77
2022/06/24 10:11:44;;;;;;;45.00;42.58;;;24.80;53.10;;;;;;5011011;28;20383;-78
2022/06/24 10:14:12;;;;;;;38.83;36.60;;;24.90;52.00;;;;;;5011778;28;20058;-77
2022/06/24 10:16:39;;;;;;;46.28;43.75;;;25.20;52.40;;;;;;4992771;28;20042;-78
2022/06/24 10:19:05;;;;;;;38.80;36.60;;;25.50;51.20;;;;;;4977533;28;20034;-77
2022/06/24 10:21:31;;;;;;;38.83;36.58;;;25.70;50.80;;;;;;4994183;28;20041;-77
2022/06/24 10:23:57;;;;;;;41.03;38.85;;;25.70;49.60;;;;;;5011011;28;20037;-78
2022/06/24 10:26:28;;;;;;;40.88;38.55;;;25.50;50.30;;;;;;5009409;28;20402;-77
2022/06/24 10:29:00;;;;;;;38.60;36.05;;;25.20;50.70;;;;;;5011695;28;20038;-77
2022/06/24 10:31:45;;;;;;;34.65;32.75;;;25.00;51.50;;;;;;5008833;28;20037;-77
2022/06/24 10:34:35;;;;;;;58.10;54.78;;;25.00;52.00;;;;;;4998221;28;20037;-77
2022/06/24 10:37:05;;;;;;;35.25;33.30;;;25.00;51.70;;;;;;4998147;28;20042;-77
2022/06/24 10:39:48;;;;;;;30.65;28.85;;;25.00;52.00;;;;;;5010569;28;20030;-76
2022/06/24 10:42:14;;;;;;;30.75;28.75;;;25.10;51.50;;;;;;4991433;28;20069;-77
2022/06/24 10:45:03;;;;;;;48.15;45.33;;;25.30;51.80;;;;;;4991610;28;20852;-77
2022/06/24 10:47:39;;;;;;;45.88;43.00;;;25.40;51.40;;;;;;5008733;28;20494;-77
2022/06/24 10:50:13;;;;;;;39.83;37.53;;;25.50;50.30;;;;;;4990298;28;20046;-77
2022/06/24 10:52:47;;;;;;;40.13;37.78;;;25.70;51.30;;;;;;5010965;28;20041;-78
2022/06/24 10:55:28;;;;;;;49.15;46.45;;;25.80;51.20;;;;;;5008500;28;20032;-78
2022/06/24 10:58:07;;;;;;;45.00;42.63;;;25.90;49.80;;;;;;5010321;28;20471;-78
2022/06/24 11:00:36;;;;;;;40.28;37.95;;;26.00;49.90;;;;;;4990633;28;20501;-78
2022/06/24 11:03:03;;;;;;;46.53;43.83;;;26.10;50.20;;;;;;5010352;28;20037;-78
2022/06/24 11:05:36;;;;;;;49.80;46.95;;;26.20;49.90;;;;;;5010440;28;20037;-78
2022/06/24 11:08:03;;;;;;;56.83;53.53;;;26.10;49.30;;;;;;4994937;28;20053;-78
2022/06/24 11:10:30;;;;;;;58.63;55.10;;;25.90;47.90;;;;;;4990439;28;20390;-78
2022/06/24 11:12:58;;;;;;;44.33;41.65;;;25.70;47.00;;;;;;4991169;28;20406;-78
2022/06/24 11:15:40;;;;;;;44.47;41.60;;;25.60;48.10;;;;;;4976463;28;20042;-78
2022/06/24 11:18:17;;;;;;;40.03;37.83;;;25.40;47.90;;;;;;4977206;28;20394;-77
2022/06/24 11:20:47;;;;;;;42.50;40.10;;;25.50;48.80;;;;;;4992666;28;20042;-78
2022/06/24 11:23:15;;;;;;;40.55;37.95;;;25.60;48.40;;;;;;5006577;28;20594;-78
2022/06/24 11:25:46;;;;;;;41.85;39.45;;;25.60;48.40;;;;;;4993328;28;20030;-77
2022/06/24 11:28:18;;;;;;;;;;;25.40;48.20;;;;;;5009911;28;20049;-78
2022/06/24 11:30:44;;;;;;;35.60;33.40;;;25.20;48.70;;;;;;5009471;28;19918;-77
2022/06/24 11:33:10;;;;;;;40.25;37.95;;;25.00;49.20;;;;;;4977075;28;20049;-77
2022/06/24 11:35:37;;;;;;;43.25;40.97;;;25.00;49.60;;;;;;5009816;28;20379;-77
2022/06/24 11:38:07;;;;;;;52.60;49.67;;;24.80;49.50;;;;;;4977359;28;20053;-78
2022/06/24 11:40:33;;;;;;;40.55;38.45;;;24.60;50.30;;;;;;5008383;28;20037;-78
2022/06/24 11:43:03;;;;;;;35.65;33.55;;;24.50;50.80;;;;;;4990355;28;20502;-78
2022/06/24 11:45:37;;;;;;;29.00;27.00;;;24.30;51.30;;;;;;5009083;28;20077;-78
2022/06/24 11:48:04;;;;;;;29.73;27.92;;;24.30;52.00;;;;;;4991241;28;20029;-77
2022/06/24 11:50:34;;;;;;;30.80;29.02;;;24.20;52.30;;;;;;4991606;28;20383;-77
2022/06/24 11:53:01;;;;;;;37.90;35.50;;;24.20;52.80;;;;;;5010500;28;20034;-77
2022/06/24 11:55:39;;;;;;;32.47;30.70;;;24.10;53.00;;;;;;4973225;28;20348;-77
2022/06/24 11:58:06;;;;;;;28.70;26.80;;;24.10;53.30;;;;;;5005759;28;20030;-77
2022/06/24 12:00:37;;;;;;;30.02;27.98;;;23.90;54.00;;;;;;5008446;28;20034;-77
2022/06/24 12:03:05;;;;;;;;;;;23.80;54.00;;;;;;4990938;28;20065;-77
2022/06/24 12:05:32;;;;;;;30.75;28.95;;;23.90;54.40;;;;;;5009502;28;19936;-77
2022/06/24 12:07:59;;;;;;;33.10;31.05;;;23.90;54.10;;;;;;4993640;28;20025;-77
2022/06/24 12:10:25;;;;;;;33.50;31.50;;;23.80;54.30;;;;;;4990007;28;20038;-77
2022/06/24 12:13:01;;;;;;;35.08;32.97;;;24.00;54.40;;;;;;4972808;28;20042;-77
2022/06/24 12:15:47;;;;;;;49.45;46.53;;;24.10;54.10;;;;;;4983401;28;20029;-78
2022/06/24 12:18:14;;;;;;;36.05;33.95;;;24.20;53.40;;;;;;5009239;28;20022;-77
2022/06/24 12:20:40;;;;;;;34.83;32.65;;;24.10;53.40;;;;;;5009526;28;20026;-77
2022/06/24 12:23:13;;;;;;;32.50;30.60;;;23.90;53.60;;;;;;5010855;28;20042;-77
2022/06/24 12:25:47;;;;;;;34.03;31.80;;;23.80;54.50;;;;;;5010559;28;20394;-77
2022/06/24 12:28:16;;;;;;;28.17;26.30;;;23.60;54.80;;;;;;4973311;28;20045;-78
2022/06/24 12:30:53;;;;;;;28.38;26.63;;;23.50;55.80;;;;;;4981910;28;20426;-77
2022/06/24 12:33:19;;;;;;;25.15;23.50;;;23.30;57.50;;;;;;4997862;28;20057;-77
2022/06/24 12:35:47;;;;;;;23.92;22.25;;;23.30;57.70;;;;;;4989637;28;20494;-77
2022/06/24 12:38:13;;;;;;;24.55;23.15;;;23.30;57.50;;;;;;5010048;28;20030;-78
2022/06/24 12:40:40;;;;;;;24.15;22.75;;;23.50;58.10;;;;;;4994664;28;20041;-77
2022/06/24 12:43:11;;;;;;;25.10;23.73;;;23.70;56.70;;;;;;4993032;28;20056;-77